Time;durP1;ratioP1;P1;durP2;ratioP2;P2;SDS_P1;SDS_P2;PMS_P1;PMS_P2;Temp;Humidity;BMP_temperature;BMP_pressure;BME280_temperature;BME280_humidity;BME280_pressure;Samples;Min_cycle;Max_cycle;Signal;HPM_P1;HPM_P2
2021/10/01 00:02:15;;;;;;;3.23;1.00;;;;;;;21.43;45.88;101832.25;4993971;28;20308;-67
2021/10/01 00:04:40;;;;;;;2.00;0.73;;;;;;;21.44;45.60;101836.56;4993759;28;20326;-67
2021/10/01 00:07:06;;;;;;;1.52;0.70;;;;;;;21.42;45.60;101835.88;4993595;28;20022;-67
2021/10/01 00:09:31;;;;;;;3.47;0.90;;;;;;;21.41;45.81;101836.81;4994257;28;20507;-67
2021/10/01 00:11:56;;;;;;;1.98;0.60;;;;;;;21.38;45.74;101835.28;4993142;28;20042;-66
2021/10/01 00:14:25;;;;;;;3.03;1.00;;;;;;;21.38;45.62;101835.28;4993575;28;20482;-65
2021/10/01 00:16:54;;;;;;;2.70;0.80;;;;;;;21.36;45.67;101823.97;4993919;28;20034;-67
2021/10/01 00:19:20;;;;;;;1.98;0.80;;;;;;;21.35;45.84;101822.25;4993611;28;20018;-67
2021/10/01 00:21:46;;;;;;;1.80;0.93;;;;;;;21.33;45.81;101826.00;4993569;28;20089;-67
2021/10/01 00:24:11;;;;;;;1.55;0.70;;;;;;;21.32;45.81;101821.66;4993568;28;20030;-68
2021/10/01 00:26:38;;;;;;;2.20;0.68;;;;;;;21.29;45.77;101809.50;4992854;28;20034;-65
2021/10/01 00:29:05;;;;;;;2.22;0.70;;;;;;;21.31;45.66;101812.84;4993275;28;20030;-66
2021/10/01 00:31:31;;;;;;;1.98;0.80;;;;;;;21.31;45.56;101807.56;4993882;28;20045;-66
2021/10/01 00:33:56;;;;;;;3.83;1.00;;;;;;;21.30;45.73;101797.06;4992530;28;20035;-66
2021/10/01 00:36:22;;;;;;;1.58;0.68;;;;;;;21.29;45.63;101798.88;4993686;28;20121;-66
2021/10/01 00:38:47;;;;;;;2.03;0.73;;;;;;;21.27;45.71;101795.53;4992956;28;20422;-66
2021/10/01 00:41:12;;;;;;;2.30;0.90;;;;;;;21.27;45.52;101797.31;4993306;28;20026;-68
2021/10/01 00:43:38;;;;;;;1.63;0.73;;;;;;;21.26;45.66;101799.13;4993466;28;20445;-66
2021/10/01 00:46:03;;;;;;;2.03;1.00;;;;;;;21.25;45.40;101799.25;4992638;28;20042;-66
2021/10/01 00:48:29;;;;;;;2.05;0.70;;;;;;;21.24;45.71;101798.41;4993186;28;20034;-66
2021/10/01 00:50:54;;;;;;;1.42;0.70;;;;;;;21.25;45.52;101793.94;4992794;28;20047;-66
2021/10/01 00:53:20;;;;;;;1.80;0.80;;;;;;;21.24;45.51;101789.59;4992750;28;20046;-66
2021/10/01 00:55:45;;;;;;;2.17;0.70;;;;;;;21.23;45.44;101791.41;4992903;28;20058;-66
2021/10/01 00:58:11;;;;;;;2.25;1.00;;;;;;;21.23;45.67;101785.28;4993119;28;20065;-67
2021/10/01 01:01:15;;;;;;;3.97;0.80;;;;;;;21.23;45.61;101786.13;4993444;28;20382;-67
2021/10/01 01:03:53;;;;;;;1.85;0.70;;;;;;;21.23;45.42;101779.97;4993366;28;20038;-67
2021/10/01 01:06:40;;;;;;;2.58;0.73;;;;;;;21.22;45.68;101776.50;4993665;28;20157;-68
2021/10/01 01:09:22;;;;;;;1.95;0.70;;;;;;;21.21;45.46;101780.09;4992560;28;20129;-66
2021/10/01 01:12:09;;;;;;;3.30;0.80;;;;;;;21.20;45.48;101773.09;4993107;28;20113;-67
2021/10/01 01:14:40;;;;;;;1.95;0.80;;;;;;;21.18;45.48;101772.41;4992917;28;20469;-67
2021/10/01 01:17:09;;;;;;;1.92;0.63;;;;;;;21.17;45.37;101776.88;4992778;28;20124;-65
2021/10/01 01:19:56;;;;;;;2.08;0.60;;;;;;;21.17;45.41;101773.34;4993061;28;20019;-66
2021/10/01 01:22:39;;;;;;;3.00;0.70;;;;;;;21.17;45.45;101768.91;4992691;28;20022;-65
2021/10/01 01:25:38;;;;;;;2.00;0.90;;;;;;;21.15;45.49;101769.97;4992497;28;20066;-66
2021/10/01 01:28:12;;;;;;;2.83;0.82;;;;;;;21.14;45.39;101757.69;4992102;28;20463;-66
2021/10/01 01:30:42;;;;;;;;;;;;;;;21.16;45.58;101766.38;4993141;28;20050;-67
2021/10/01 01:33:16;;;;;;;2.55;0.70;;;;;;;21.16;45.37;101758.44;4994813;28;19921;-67
2021/10/01 01:35:43;;;;;;;1.48;0.60;;;;;;;21.13;45.43;101759.50;4996367;28;20454;-66
2021/10/01 01:38:15;;;;;;;1.40;0.60;;;;;;;21.13;45.53;101748.91;4996377;28;20042;-67
2021/10/01 01:40:50;;;;;;;1.15;0.60;;;;;;;21.14;45.52;101747.09;4996905;28;20118;-66
2021/10/01 01:43:16;;;;;;;2.17;0.77;;;;;;;21.13;45.31;101734.81;4996240;28;20097;-65
2021/10/01 01:45:43;;;;;;;1.90;0.70;;;;;;;21.12;45.39;101735.78;4996435;28;20030;-67
2021/10/01 01:48:10;;;;;;;1.85;0.80;;;;;;;21.11;45.39;101734.06;4996544;28;20022;-66
2021/10/01 01:50:37;;;;;;;2.53;0.85;;;;;;;21.10;45.38;101733.25;4996352;28;20062;-67
2021/10/01 01:53:04;;;;;;;2.10;0.70;;;;;;;21.10;45.45;101735.06;4996027;28;20042;-66
2021/10/01 01:55:31;;;;;;;2.47;0.77;;;;;;;21.09;45.52;101733.38;4996754;28;20026;-66
2021/10/01 01:57:58;;;;;;;2.25;0.60;;;;;;;21.09;45.52;101730.72;4995195;28;20018;-66
2021/10/01 02:00:23;;;;;;;1.10;0.55;;;;;;;21.06;45.63;101723.88;4996372;28;20058;-66
2021/10/01 02:02:50;;;;;;;2.80;0.70;;;;;;;21.07;45.58;101728.19;4996263;28;20054;-67
2021/10/01 02:05:16;;;;;;;2.60;0.90;;;;;;;21.06;45.44;101715.91;4995814;28;20035;-66
2021/10/01 02:07:43;;;;;;;2.25;0.70;;;;;;;21.06;45.54;101717.72;4996252;28;20071;-67
2021/10/01 02:10:10;;;;;;;2.15;0.60;;;;;;;21.07;45.44;101722.06;4996075;28;20042;-67
2021/10/01 02:12:35;;;;;;;1.85;0.75;;;;;;;21.06;45.24;101712.41;4995596;28;20050;-66
2021/10/01 02:15:03;;;;;;;2.50;0.80;;;;;;;21.05;45.45;101721.34;4995907;28;20419;-66
2021/10/01 02:17:33;;;;;;;2.78;0.70;;;;;;;21.02;45.38;101720.59;4995734;28;20132;-67
2021/10/01 02:20:01;;;;;;;3.03;0.80;;;;;;;21.01;45.52;101711.00;4995808;28;20034;-66
2021/10/01 02:22:28;;;;;;;2.65;0.80;;;;;;;21.04;45.33;101719.66;4996231;28;20022;-67
2021/10/01 02:24:56;;;;;;;1.75;0.70;;;;;;;21.02;45.42;101706.53;4995339;28;20084;-67
2021/10/01 02:27:49;;;;;;;1.23;0.60;;;;;;;21.01;45.38;101708.34;4995700;28;20045;-66
2021/10/01 02:30:17;;;;;;;1.73;0.70;;;;;;;21.01;45.39;101700.38;4996052;28;20033;-66
2021/10/01 02:32:52;;;;;;;1.33;0.60;;;;;;;21.00;45.25;101690.75;4995219;28;20516;-66
2021/10/01 02:35:18;;;;;;;2.00;0.80;;;;;;;21.00;45.35;101689.91;4995719;28;20038;-67
2021/10/01 02:37:45;;;;;;;2.75;0.88;;;;;;;20.97;45.32;101693.63;4995750;28;20398;-66
2021/10/01 02:40:11;;;;;;;2.63;0.80;;;;;;;20.96;45.27;101685.81;4994512;28;20096;-65
2021/10/01 02:42:39;;;;;;;2.45;0.75;;;;;;;20.96;45.11;101677.84;4995817;28;20106;-67
2021/10/01 02:45:06;;;;;;;1.02;0.50;;;;;;;20.94;45.44;101683.28;4995479;28;20023;-66
2021/10/01 02:47:34;;;;;;;1.27;0.60;;;;;;;20.93;45.33;101673.63;4994870;28;20034;-66
2021/10/01 02:50:03;;;;;;;1.80;0.75;;;;;;;20.94;45.49;101677.16;4995117;28;20050;-66
2021/10/01 02:52:33;;;;;;;1.42;0.70;;;;;;;20.94;45.23;101672.69;4995036;28;20038;-66
2021/10/01 02:55:06;;;;;;;2.10;0.60;;;;;;;20.92;45.33;101668.47;4995106;28;20049;-66
2021/10/01 02:57:43;;;;;;;3.30;0.60;;;;;;;20.93;45.48;101670.16;4995283;28;20030;-66
2021/10/01 03:00:09;;;;;;;2.90;0.88;;;;;;;20.91;45.33;101661.50;4994647;28;20038;-66
2021/10/01 03:02:37;;;;;;;1.65;0.70;;;;;;;20.91;45.19;101658.84;4995132;28;20026;-66
2021/10/01 03:05:06;;;;;;;2.42;0.70;;;;;;;20.90;45.16;101652.69;4994996;28;20042;-68
2021/10/01 03:07:34;;;;;;;2.25;0.70;;;;;;;20.89;45.30;101660.78;4994748;28;20042;-66
2021/10/01 03:10:03;;;;;;;2.17;0.63;;;;;;;20.87;45.21;101660.91;4994779;28;20037;-66
2021/10/01 03:12:30;;;;;;;1.40;0.68;;;;;;;20.86;45.42;101656.56;4995114;28;20026;-67
2021/10/01 03:14:58;;;;;;;2.63;0.80;;;;;;;20.87;45.41;101660.03;4994292;28;20085;-66
2021/10/01 03:17:25;;;;;;;2.40;0.70;;;;;;;20.87;45.22;101652.09;4994873;28;20041;-66
2021/10/01 03:20:00;;;;;;;2.13;0.80;;;;;;;20.86;45.16;101651.25;4994487;28;20035;-66
2021/10/01 03:22:31;;;;;;;2.72;0.80;;;;;;;20.86;45.14;101640.66;4994413;28;20026;-66
2021/10/01 03:25:02;;;;;;;2.33;0.50;;;;;;;20.86;45.25;101635.38;4994720;28;20026;-66
2021/10/01 03:27:30;;;;;;;2.78;0.90;;;;;;;20.84;45.13;101626.72;4994795;28;20031;-66
2021/10/01 03:30:00;;;;;;;2.20;0.70;;;;;;;20.84;45.19;101627.53;4993661;28;20049;-66
2021/10/01 03:32:26;;;;;;;2.40;0.60;;;;;;;20.83;45.34;101623.19;4994927;28;20030;-66
2021/10/01 03:34:53;;;;;;;1.98;0.70;;;;;;;20.82;45.16;101621.53;4993973;28;20112;-67
2021/10/01 03:37:20;;;;;;;1.75;0.80;;;;;;;20.80;45.37;101614.66;4994570;28;20026;-66
2021/10/01 03:40:07;;;;;;;1.88;0.70;;;;;;;20.80;45.29;101623.44;4994697;28;20037;-66
2021/10/01 03:42:32;;;;;;;1.63;0.60;;;;;;;20.79;45.16;101616.47;4993869;28;20072;-66
2021/10/01 03:45:00;;;;;;;1.85;0.60;;;;;;;20.80;45.24;101614.66;4994138;28;20049;-66
2021/10/01 03:47:25;;;;;;;1.85;0.60;;;;;;;20.80;45.39;101604.91;4994640;28;20057;-66
2021/10/01 03:49:51;;;;;;;1.88;0.75;;;;;;;20.79;45.29;101605.88;4993704;28;20081;-66
2021/10/01 03:52:17;;;;;;;1.73;0.70;;;;;;;20.78;45.68;101598.06;4994179;28;20027;-66
2021/10/01 03:54:45;;;;;;;2.03;0.80;;;;;;;20.77;45.20;101591.91;4993893;28;20038;-66
2021/10/01 03:57:11;;;;;;;2.25;0.70;;;;;;;20.77;45.12;101583.97;4993152;28;20022;-66
2021/10/01 03:59:37;;;;;;;2.45;0.77;;;;;;;20.77;45.32;101583.97;4994101;28;20597;-66
2021/10/01 04:02:02;;;;;;;1.38;0.57;;;;;;;20.76;45.32;101574.34;4994038;28;20125;-66
2021/10/01 04:04:28;;;;;;;3.17;0.75;;;;;;;20.76;45.25;101569.06;4993321;28;20041;-66
2021/10/01 04:06:54;;;;;;;3.90;1.05;;;;;;;20.77;45.24;101568.06;4993704;28;20489;-66
2021/10/01 04:09:19;;;;;;;1.88;0.70;;;;;;;20.77;45.05;101560.13;4994042;28;20027;-66
2021/10/01 04:11:45;;;;;;;2.40;0.70;;;;;;;20.77;45.04;101559.28;4993161;28;20018;-66
2021/10/01 04:14:10;;;;;;;1.88;0.85;;;;;;;20.77;45.13;101556.63;4993448;28;20034;-66
2021/10/01 04:16:35;;;;;;;3.33;0.80;;;;;;;20.76;45.01;101552.28;4993889;28;20113;-66
2021/10/01 04:19:01;;;;;;;1.63;0.70;;;;;;;20.77;44.79;101544.22;4992895;28;20040;-65
2021/10/01 04:21:26;;;;;;;3.08;0.70;;;;;;;20.75;45.16;101540.03;4993816;28;20363;-66
2021/10/01 04:23:52;;;;;;;2.25;0.80;;;;;;;20.73;45.29;101540.16;4992704;28;20030;-66
2021/10/01 04:26:17;;;;;;;1.58;0.68;;;;;;;20.72;45.05;101540.28;4993434;28;20026;-66
2021/10/01 04:28:44;;;;;;;1.65;0.70;;;;;;;20.74;45.05;101535.69;4993802;28;20091;-66
2021/10/01 04:31:09;;;;;;;1.80;0.70;;;;;;;20.74;44.93;101535.69;4993037;28;20034;-66
2021/10/01 04:33:36;;;;;;;2.05;0.70;;;;;;;20.73;44.89;101536.66;4993335;28;20493;-66
2021/10/01 04:36:02;;;;;;;2.53;0.73;;;;;;;20.71;45.03;101536.81;4993253;28;20030;-66
2021/10/01 04:38:28;;;;;;;2.35;0.70;;;;;;;20.72;44.90;101540.28;4993039;28;20022;-66
2021/10/01 04:40:53;;;;;;;3.30;1.00;;;;;;;20.73;44.94;101536.66;4992849;28;20069;-66
2021/10/01 04:43:19;;;;;;;1.33;0.63;;;;;;;20.71;44.87;101539.44;4993602;28;20022;-65
2021/10/01 04:45:46;;;;;;;2.30;0.68;;;;;;;20.71;44.95;101530.66;4993039;28;20397;-66
2021/10/01 04:48:11;;;;;;;2.25;0.75;;;;;;;20.71;44.94;101534.16;4992960;28;20033;-65
2021/10/01 04:50:37;;;;;;;2.15;0.60;;;;;;;20.70;44.83;101540.41;4993179;28;20050;-65
2021/10/01 04:53:04;;;;;;;2.65;1.08;;;;;;;20.69;44.69;101528.13;4992445;28;20500;-66
2021/10/01 04:55:32;;;;;;;1.38;0.70;;;;;;;20.70;44.87;101527.16;4992975;28;20022;-66
2021/10/01 04:57:57;;;;;;;2.42;0.60;;;;;;;20.70;44.88;101524.53;4993167;28;20390;-66
2021/10/01 05:00:25;;;;;;;2.47;0.80;;;;;;;20.68;44.78;101515.88;4992261;28;20038;-66
2021/10/01 05:02:50;;;;;;;2.13;0.80;;;;;;;20.68;44.77;101509.72;4992993;28;20038;-66
2021/10/01 05:05:16;;;;;;;3.13;0.82;;;;;;;20.69;44.81;101522.00;4993165;28;20042;-65
2021/10/01 05:07:41;;;;;;;1.90;0.70;;;;;;;20.68;44.90;101518.50;4991468;28;20018;-66
2021/10/01 05:10:07;;;;;;;1.77;0.70;;;;;;;20.67;44.76;101508.03;4992719;28;20398;-66
2021/10/01 05:12:33;;;;;;;1.83;0.60;;;;;;;20.68;44.82;101515.00;4992971;28;20125;-66
2021/10/01 05:14:58;;;;;;;3.47;1.00;;;;;;;20.67;44.76;101516.81;4992102;28;20454;-67
2021/10/01 05:17:24;;;;;;;1.88;0.80;;;;;;;20.66;44.80;101504.53;4993030;28;20026;-65
2021/10/01 05:19:50;;;;;;;1.85;0.60;;;;;;;20.67;44.69;101506.22;4992548;28;20447;-65
2021/10/01 05:22:16;;;;;;;1.27;0.63;;;;;;;20.69;44.70;101506.09;4992118;28;20121;-65
2021/10/01 05:24:44;;;;;;;1.30;0.60;;;;;;;20.67;44.60;101503.56;4992838;28;20060;-67
2021/10/01 05:27:11;;;;;;;2.35;0.60;;;;;;;20.69;44.99;101506.09;4992151;28;20026;-66
2021/10/01 05:29:36;;;;;;;2.22;0.80;;;;;;;20.69;45.35;101516.69;4992663;28;20152;-66
2021/10/01 05:32:02;;;;;;;1.33;0.60;;;;;;;20.69;45.65;101514.88;4992652;28;20497;-66
2021/10/01 05:34:27;;;;;;;1.40;0.68;;;;;;;20.69;45.91;101509.59;4992165;28;20385;-66
2021/10/01 05:36:53;;;;;;;1.90;0.75;;;;;;;20.70;46.27;101513.09;4992241;28;20046;-66
2021/10/01 05:39:18;;;;;;;2.38;0.80;;;;;;;20.72;45.98;101519.94;4992560;28;20027;-66
2021/10/01 05:41:43;;;;;;;2.10;0.73;;;;;;;20.75;45.95;101519.69;4992228;28;20049;-66
2021/10/01 05:44:09;;;;;;;1.55;0.70;;;;;;;20.76;46.05;101512.56;4992342;28;20030;-66
2021/10/01 05:46:39;;;;;;;1.83;0.90;;;;;;;20.75;46.50;101517.03;4992795;28;20053;-66
2021/10/01 05:49:05;;;;;;;1.33;0.40;;;;;;;20.76;46.94;101516.06;4991931;28;20042;-66
2021/10/01 05:51:31;;;;;;;2.58;0.70;;;;;;;20.74;47.04;101507.38;4992252;28;20057;-66
2021/10/01 05:56:34;;;;;;;1.00;0.57;;;;;;;20.77;47.21;101508.97;4992198;28;20034;-66
2021/10/01 05:58:59;;;;;;;2.13;0.70;;;;;;;20.77;47.23;101507.13;4992460;28;20026;-67
2021/10/01 06:01:25;;;;;;;2.20;0.80;;;;;;;20.78;47.20;101515.94;4992759;28;20105;-66
2021/10/01 06:03:53;;;;;;;2.38;0.80;;;;;;;20.78;47.24;101511.47;4991517;28;20081;-66
2021/10/01 06:06:18;;;;;;;2.60;0.70;;;;;;;20.81;47.24;101518.34;4992279;28;20141;-67
2021/10/01 06:08:44;;;;;;;2.53;0.75;;;;;;;20.82;47.22;101515.56;4992794;28;20147;-67
2021/10/01 06:11:10;;;;;;;2.55;0.73;;;;;;;20.85;46.95;101517.09;4991604;28;20489;-66
2021/10/01 06:13:37;;;;;;;2.78;0.80;;;;;;;20.89;47.09;101509.78;4992302;28;20069;-66
2021/10/01 06:16:06;;;;;;;2.13;0.70;;;;;;;20.92;47.03;101509.50;4992225;28;20030;-66
2021/10/01 06:18:31;;;;;;;1.75;0.70;;;;;;;20.92;46.89;101510.34;4992730;28;20018;-66
2021/10/01 06:20:57;;;;;;;2.67;0.80;;;;;;;20.95;46.92;101512.75;4995617;28;20025;-67
2021/10/01 06:23:25;;;;;;;2.25;0.70;;;;;;;20.95;46.76;101506.59;4996074;28;20034;-66
2021/10/01 06:25:51;;;;;;;2.15;0.60;;;;;;;20.95;46.98;101510.09;4995654;28;20022;-67
2021/10/01 06:28:16;;;;;;;1.45;0.65;;;;;;;20.98;46.79;101514.28;4996329;28;20022;-66
2021/10/01 06:30:42;;;;;;;2.65;0.70;;;;;;;21.00;46.67;101520.31;4995458;28;20064;-66
2021/10/01 06:33:07;;;;;;;2.70;0.90;;;;;;;21.02;46.63;101518.38;4995178;28;20474;-67
2021/10/01 06:35:36;;;;;;;2.58;1.15;;;;;;;21.02;45.44;101513.91;4996163;28;20501;-66
2021/10/01 06:38:02;;;;;;;4.35;0.77;;;;;;;21.04;45.84;101515.59;4995249;28;20037;-68
2021/10/01 06:40:27;;;;;;;2.03;0.75;;;;;;;21.03;46.36;101512.13;4995806;28;20038;-65
2021/10/01 06:42:55;;;;;;;1.77;0.60;;;;;;;21.01;46.30;101506.94;4995712;28;20035;-66
2021/10/01 06:45:27;;;;;;;1.63;0.60;;;;;;;21.02;46.18;101511.25;4995226;28;20085;-65
2021/10/01 06:48:07;;;;;;;2.67;0.65;;;;;;;21.03;46.19;101509.47;4995547;28;20482;-71
2021/10/01 07:20:54;;;;;;;2.10;0.70;;;;;;;21.06;46.21;101509.22;4995265;28;20086;-69
2021/10/01 07:21:11;;;;;;;;;;;;;;;21.24;45.65;101485.63;4995240;28;20069;-68
2021/10/01 07:24:08;;;;;;;2.67;0.70;;;;;;;21.27;45.67;101484.50;4995115;28;19921;-64
2021/10/01 07:35:14;;;;;;;2.50;0.90;;;;;;;21.36;45.78;101467.81;4996288;28;20045;-70
2021/10/01 08:19:05;;;;;;;;;;;;;;;21.78;45.05;101494.31;4994184;28;20034;-64
2021/10/01 08:21:57;;;;;;;1.98;0.57;;;;;;;21.72;44.92;101500.16;4995279;28;20024;-66
2021/10/01 08:24:24;;;;;;;2.40;0.60;;;;;;;21.70;45.16;101492.31;4996768;28;20397;-65
2021/10/01 08:26:50;;;;;;;2.28;0.80;;;;;;;21.72;45.11;101492.19;4995654;28;20102;-65
2021/10/01 08:29:16;;;;;;;1.85;0.70;;;;;;;21.74;45.19;101490.22;4995312;28;20022;-64
2021/10/01 08:31:42;;;;;;;2.70;0.90;;;;;;;21.73;45.06;101480.59;4994081;28;20029;-60
2021/10/01 08:34:10;;;;;;;2.60;0.70;;;;;;;21.72;44.91;101486.88;4993612;28;20117;-67
2021/10/01 08:36:36;;;;;;;1.95;0.68;;;;;;;21.71;45.44;101478.09;4994431;28;20026;-62
2021/10/01 08:39:04;;;;;;;2.53;0.70;;;;;;;21.73;45.38;101476.13;4993669;28;20057;-63
2021/10/01 08:41:30;;;;;;;2.17;0.70;;;;;;;21.77;45.16;101481.19;4996427;28;20045;-63
2021/10/01 08:43:56;;;;;;;1.85;0.57;;;;;;;21.81;45.38;101482.56;4995309;28;20027;-64
2021/10/01 08:46:22;;;;;;;4.57;0.77;;;;;;;21.82;45.53;101474.47;4995013;28;20022;-66
2021/10/01 08:48:49;;;;;;;2.95;0.70;;;;;;;21.84;45.37;101479.66;4993502;28;20073;-64
2021/10/01 08:51:15;;;;;;;2.33;0.65;;;;;;;21.85;45.31;101463.59;4993457;28;20086;-64
2021/10/01 08:53:40;;;;;;;2.45;0.70;;;;;;;21.85;45.35;101465.44;4994361;28;20061;-64
2021/10/01 08:56:06;;;;;;;6.22;0.98;;;;;;;21.85;45.25;101462.78;4994174;28;20038;-66
2021/10/01 08:58:32;;;;;;;2.65;0.93;;;;;;;21.86;45.24;101467.94;4994338;28;20035;-66
2021/10/01 09:00:59;;;;;;;2.13;0.75;;;;;;;21.89;45.16;101462.38;4993619;28;20029;-64
2021/10/01 09:03:24;;;;;;;3.53;1.30;;;;;;;21.91;45.08;101460.41;4994224;28;20033;-64
2021/10/01 09:05:53;;;;;;;3.45;0.80;;;;;;;21.91;45.11;101452.44;4993770;28;20030;-64
2021/10/01 09:08:24;;;;;;;3.88;0.80;;;;;;;21.95;45.15;101466.28;4995217;28;20493;-64
2021/10/01 09:11:05;;;;;;;2.25;0.80;;;;;;;21.96;44.90;101460.00;4994977;28;20030;-63
2021/10/01 09:13:33;;;;;;;1.88;0.80;;;;;;;21.99;44.77;101459.75;4993772;28;20098;-65
2021/10/01 09:16:03;;;;;;;2.70;0.77;;;;;;;21.96;44.95;101453.88;4993494;28;20102;-67
2021/10/01 09:18:30;;;;;;;1.80;0.63;;;;;;;21.92;45.09;101445.31;4994177;28;20485;-63
2021/10/01 09:21:14;;;;;;;2.33;0.80;;;;;;;21.92;45.04;101450.63;4992430;28;20038;-63
2021/10/01 09:23:52;;;;;;;2.72;0.70;;;;;;;21.93;45.12;101455.81;4994453;28;20149;-64
2021/10/01 09:26:22;;;;;;;2.45;0.80;;;;;;;21.92;44.96;101450.63;4992920;28;20026;-64
2021/10/01 09:29:07;;;;;;;2.53;0.90;;;;;;;21.89;44.99;101440.31;4992898;28;20071;-64
2021/10/01 09:31:44;;;;;;;3.28;0.65;;;;;;;21.84;44.89;101445.16;4993082;28;20026;-64
2021/10/01 09:34:30;;;;;;;2.95;0.90;;;;;;;21.81;45.17;101434.81;4991677;28;20504;-65
2021/10/01 09:37:26;;;;;;;3.00;0.88;;;;;;;21.82;45.33;101441.81;4993012;28;20088;-65
2021/10/01 09:39:53;;;;;;;1.08;0.60;;;;;;;21.84;45.16;101422.13;4993191;28;20038;-65
2021/10/01 09:42:23;;;;;;;2.40;0.70;;;;;;;21.85;45.23;101421.16;4992381;28;20027;-65
2021/10/01 09:45:01;;;;;;;1.48;0.57;;;;;;;21.85;45.15;101425.63;4992626;28;20130;-67
2021/10/01 09:47:31;;;;;;;2.22;0.73;;;;;;;21.87;45.01;101419.22;4992648;28;20421;-63
2021/10/01 09:50:22;;;;;;;2.78;0.80;;;;;;;21.88;45.26;101402.31;4992303;28;20055;-67
2021/10/01 09:52:57;;;;;;;5.35;0.93;;;;;;;21.91;44.56;101403.84;4992975;28;20051;-64
2021/10/01 09:55:30;;;;;;;2.03;0.80;;;;;;;21.92;45.13;101417.00;4997032;28;20027;-62
2021/10/01 09:58:25;;;;;;;2.55;0.80;;;;;;;21.90;45.15;101408.34;4996467;28;20037;-63
2021/10/01 10:00:53;;;;;;;2.92;0.80;;;;;;;21.88;45.17;101406.78;4995171;28;20419;-61
2021/10/01 10:03:22;;;;;;;2.35;0.63;;;;;;;21.86;45.45;101400.78;4998252;28;20030;-63
2021/10/01 10:06:02;;;;;;;1.98;0.82;;;;;;;21.89;45.34;101395.19;4997507;28;20141;-65
2021/10/01 10:08:32;;;;;;;3.35;0.70;;;;;;;21.92;45.39;101401.06;4996923;28;20023;-64
2021/10/01 10:11:02;;;;;;;2.42;0.68;;;;;;;21.95;45.39;101407.91;4998530;28;20042;-64
2021/10/01 10:13:43;;;;;;;3.20;0.70;;;;;;;21.98;45.38;101401.50;4997881;28;20045;-64
2021/10/01 10:16:27;;;;;;;2.42;0.80;;;;;;;22.02;45.40;101406.38;4996589;28;20497;-66
2021/10/01 10:19:07;;;;;;;2.00;0.60;;;;;;;22.03;45.27;101408.09;4996422;28;20046;-63
2021/10/01 10:21:34;;;;;;;5.80;0.70;;;;;;;22.05;45.25;101402.63;4996485;28;20488;-63
2021/10/01 10:24:00;;;;;;;2.72;0.68;;;;;;;22.04;45.34;101401.78;4995649;28;20050;-63
2021/10/01 10:26:27;;;;;;;2.30;0.73;;;;;;;22.04;45.31;101393.81;4996896;28;20469;-61
2021/10/01 10:29:02;;;;;;;2.85;0.90;;;;;;;22.01;45.19;101391.44;4995994;28;20034;-63
2021/10/01 10:31:28;;;;;;;3.05;0.80;;;;;;;;;;4995706;28;20057;-65
2021/10/01 10:33:57;;;;;;;3.63;0.90;;;;;;;21.95;45.32;101391.16;4995866;28;20046;-65
2021/10/01 10:36:37;;;;;;;1.90;0.70;;;;;;;21.92;45.55;101377.19;4996243;28;20034;-65
2021/10/01 10:39:12;;;;;;;2.63;0.70;;;;;;;21.92;45.53;101384.28;4995740;28;20034;-63
2021/10/01 10:41:40;;;;;;;3.05;0.70;;;;;;;21.90;45.41;101379.16;4996271;28;20037;-64
2021/10/01 10:44:08;;;;;;;3.65;0.55;;;;;;;21.90;45.52;101379.16;4995081;28;20087;-62
2021/10/01 10:46:36;;;;;;;2.55;1.17;;;;;;;21.91;45.54;101378.16;4997459;28;20046;-65
2021/10/01 10:49:25;;;;;;;3.70;1.00;;;;;;;21.93;45.24;101381.50;4995864;28;20061;-66
2021/10/01 10:52:16;;;;;;;1.92;0.70;;;;;;;21.96;45.09;101379.56;4994451;28;20039;-66
2021/10/01 10:54:43;;;;;;;3.30;0.65;;;;;;;21.93;45.45;101375.38;4995528;28;20042;-66
2021/10/01 10:57:18;;;;;;;2.30;0.73;;;;;;;21.94;45.76;101374.41;4995058;28;20027;-66
2021/10/01 10:59:53;;;;;;;3.45;0.75;;;;;;;21.97;45.36;101366.16;4994857;28;20134;-67
2021/10/01 11:02:25;;;;;;;3.05;0.80;;;;;;;21.98;45.08;101359.84;4995345;28;20030;-66
2021/10/01 11:05:14;;;;;;;3.17;0.75;;;;;;;22.04;45.29;101361.13;4993541;28;20054;-67
2021/10/01 11:07:54;;;;;;;1.50;0.50;;;;;;;22.06;45.00;101360.03;4995387;28;20046;-66
2021/10/01 11:10:36;;;;;;;2.33;0.85;;;;;;;22.05;45.00;101355.69;4995015;28;20045;-66
2021/10/01 11:13:25;;;;;;;2.58;0.68;;;;;;;22.05;45.16;101338.94;4994521;28;20133;-65
2021/10/01 11:16:09;;;;;;;3.38;0.80;;;;;;;22.07;45.08;101345.78;4995004;28;20042;-66
2021/10/01 11:18:47;;;;;;;3.50;1.27;;;;;;;22.05;45.11;101341.59;4995209;28;20038;-66
2021/10/01 11:21:27;;;;;;;1.75;0.55;;;;;;;22.02;45.08;101331.25;4994268;28;20125;-65
2021/10/01 11:24:18;;;;;;;2.10;0.60;;;;;;;21.99;45.16;101340.31;4994808;28;20038;-66
2021/10/01 11:26:56;;;;;;;1.40;0.57;;;;;;;21.97;45.17;101339.63;4994407;28;20034;-66
2021/10/01 11:29:25;;;;;;;1.00;0.50;;;;;;;21.96;45.11;101337.13;4994957;28;20390;-66
2021/10/01 11:31:53;;;;;;;2.42;0.70;;;;;;;21.98;45.15;101333.31;4994636;28;20046;-68
2021/10/01 11:34:34;;;;;;;1.27;0.52;;;;;;;21.95;45.17;101341.56;4994104;28;20398;-66
2021/10/01 11:37:00;;;;;;;4.03;0.80;;;;;;;21.92;45.33;101337.38;4994570;28;20041;-66
2021/10/01 11:39:25;;;;;;;2.78;0.80;;;;;;;21.95;45.19;101335.44;4994773;28;20023;-66
2021/10/01 11:41:51;;;;;;;2.60;0.80;;;;;;;21.94;45.03;101345.22;4993572;28;20045;-66
2021/10/01 11:44:16;;;;;;;3.15;0.75;;;;;;;21.95;45.31;101341.56;4994845;28;20291;-65
2021/10/01 11:46:47;;;;;;;2.03;0.60;;;;;;;21.97;45.09;101329.00;4994787;28;20022;-66
2021/10/01 11:49:17;;;;;;;2.47;0.73;;;;;;;21.99;44.65;101332.34;4993734;28;20279;-63
2021/10/01 11:52:04;;;;;;;2.63;0.70;;;;;;;21.92;43.88;101328.56;4994680;28;20018;-64
2021/10/01 11:54:30;;;;;;;3.40;0.88;;;;;;;21.86;44.46;101329.16;4993673;28;20061;-65
2021/10/01 11:56:58;;;;;;;2.42;0.80;;;;;;;21.88;44.91;101328.00;4994363;28;20034;-64
2021/10/01 11:59:25;;;;;;;2.50;0.63;;;;;;;21.85;44.75;101324.81;4994331;28;20027;-64
2021/10/01 12:01:58;;;;;;;2.33;0.80;;;;;;;21.82;45.01;101325.06;4993329;28;20419;-63
2021/10/01 12:04:32;;;;;;;2.08;0.60;;;;;;;21.78;45.19;101327.16;4994210;28;20038;-64
2021/10/01 12:07:03;;;;;;;2.35;0.60;;;;;;;21.77;45.50;101327.31;4993924;28;20109;-64
2021/10/01 12:09:28;;;;;;;1.77;0.70;;;;;;;21.79;45.43;101330.66;4993721;28;20027;-64
2021/10/01 12:11:53;;;;;;;1.20;0.52;;;;;;;21.82;45.32;101320.59;4993875;28;20504;-65
2021/10/01 12:14:21;;;;;;;3.22;0.75;;;;;;;21.81;45.52;101315.44;4994035;28;20109;-64
2021/10/01 12:16:56;;;;;;;3.38;0.80;;;;;;;21.77;45.70;101316.69;4992475;28;20041;-64
2021/10/01 12:19:26;;;;;;;2.53;0.70;;;;;;;21.74;45.91;101320.44;4993865;28;20034;-66
2021/10/01 12:22:13;;;;;;;1.58;0.50;;;;;;;21.68;43.79;101319.19;4993830;28;20042;-67
2021/10/01 12:24:43;;;;;;;3.72;0.80;;;;;;;21.63;42.79;101310.78;4993817;28;20109;-63
2021/10/01 12:27:09;;;;;;;2.58;0.80;;;;;;;21.61;43.03;101303.97;4993538;28;20061;-65
2021/10/01 12:29:45;;;;;;;2.88;0.88;;;;;;;21.60;44.17;101305.75;4993223;28;20130;-62
2021/10/01 12:32:11;;;;;;;2.33;0.80;;;;;;;21.59;44.85;101301.44;4993953;28;20402;-64
2021/10/01 12:34:49;;;;;;;3.22;0.75;;;;;;;21.61;44.93;101299.50;4993808;28;20038;-65
2021/10/01 12:37:21;;;;;;;2.85;0.80;;;;;;;21.60;45.50;101297.81;4993240;28;20022;-65
2021/10/01 12:39:56;;;;;;;8.88;1.73;;;;;;;21.60;45.45;101308.41;4993962;28;20065;-63
2021/10/01 12:42:26;;;;;;;13.38;4.20;;;;;;;21.62;45.75;101302.97;4994474;28;20113;-63
2021/10/01 12:45:00;;;;;;;22.35;6.60;;;;;;;21.67;45.66;101309.56;4993208;28;20018;-64
2021/10/01 12:47:31;;;;;;;38.13;9.10;;;;;;;21.75;45.64;101298.25;4994283;28;20022;-64
2021/10/01 12:50:04;;;;;;;34.15;7.88;;;;;;;21.79;45.73;101297.00;4993539;28;20050;-64
2021/10/01 12:52:31;;;;;;;19.80;6.05;;;;;;;21.87;45.61;101293.66;4992936;28;20031;-63
2021/10/01 12:55:04;;;;;;;24.42;6.75;;;;;;;21.91;45.74;101287.94;4992975;28;20487;-63
2021/10/01 12:57:29;;;;;;;26.48;7.65;;;;;;;21.95;45.72;101287.66;4993241;28;20101;-63
2021/10/01 13:00:08;;;;;;;24.03;6.77;;;;;;;21.98;45.80;101293.50;4993210;28;20130;-62
2021/10/01 13:02:41;;;;;;;19.73;6.35;;;;;;;21.98;45.95;101288.22;4993638;28;20053;-63